Time;durP1;ratioP1;P1;durP2;ratioP2;P2;SDS_P1;SDS_P2;PMS_P1;PMS_P2;Temp;Humidity;BMP_temperature;BMP_pressure;BME280_temperature;BME280_humidity;BME280_pressure;Samples;Min_cycle;Max_cycle;Signal;HPM_P1;HPM_P2
2024/01/13 00:01:50;;;;;;;11.13;3.92;;;;;;;-18.63;52.72;99523.03;6277125;22;20057;-59
2024/01/13 00:04:16;;;;;;;10.23;3.35;;;;;;;-18.72;52.65;99515.09;6276450;22;20385;-59
2024/01/13 00:06:41;;;;;;;11.02;3.22;;;;;;;-18.68;52.76;99523.72;6277015;22;20010;-58
2024/01/13 00:09:07;;;;;;;14.88;3.83;;;;;;;-18.71;53.06;99521.06;6277088;22;20035;-55
2024/01/13 00:11:33;;;;;;;10.20;2.95;;;;;;;-19.07;52.79;99474.88;6277020;22;20007;-60
2024/01/13 00:13:58;;;;;;;11.00;3.30;;;;;;;-18.81;52.91;99530.09;6276451;22;20076;-57
2024/01/13 00:16:24;;;;;;;12.52;3.88;;;;;;;-18.80;52.59;99545.47;6276269;22;20404;-59
2024/01/13 00:18:49;;;;;;;16.95;3.95;;;;;;;-18.82;53.09;99533.47;6276468;22;20071;-61
2024/01/13 00:21:15;;;;;;;13.48;3.35;;;;;;;-18.86;53.11;99546.94;6276915;22;20010;-59
2024/01/13 00:23:41;;;;;;;7.85;2.65;;;;;;;-18.86;52.91;99552.06;6276613;22;20075;-60
2024/01/13 00:26:06;;;;;;;10.50;3.17;;;;;;;-18.89;53.11;99554.50;6276530;22;20045;-57
2024/01/13 00:28:32;;;;;;;9.10;3.47;;;;;;;-18.87;52.84;99555.44;6276364;22;20016;-60
2024/01/13 00:30:57;;;;;;;9.10;3.72;;;;;;;-18.93;53.02;99556.97;6276894;22;20057;-59
2024/01/13 00:33:23;;;;;;;12.90;3.85;;;;;;;-18.97;52.70;99562.78;6276399;22;20018;-56
2024/01/13 00:35:48;;;;;;;8.75;3.03;;;;;;;-18.99;52.99;99561.91;6276082;22;20007;-59
2024/01/13 00:38:14;;;;;;;11.88;3.33;;;;;;;-19.00;53.08;99575.47;6277057;22;20031;-56
2024/01/13 00:40:40;;;;;;;11.15;3.70;;;;;;;-19.00;53.24;99585.69;6276643;22;20280;-60
2024/01/13 00:43:05;;;;;;;9.35;3.35;;;;;;;-19.03;53.10;99582.16;6276494;22;20460;-59
2024/01/13 00:45:31;;;;;;;7.95;2.83;;;;;;;-19.06;53.21;99596.56;6276105;22;19995;-61
2024/01/13 00:47:56;;;;;;;9.80;3.13;;;;;;;-19.07;52.91;99588.81;6275121;22;20405;-55
2024/01/13 00:50:22;;;;;;;13.65;3.28;;;;;;;-19.08;53.14;99592.19;6276330;22;20078;-56
2024/01/13 00:52:47;;;;;;;11.55;3.70;;;;;;;-19.10;53.44;99594.72;6276462;22;20004;-58
2024/01/13 00:55:13;;;;;;;11.90;3.47;;;;;;;-19.12;53.11;99600.56;6276340;22;20297;-58
2024/01/13 00:57:38;;;;;;;10.82;3.38;;;;;;;-19.19;53.00;99586.72;6276445;22;20004;-60
2024/01/13 01:00:05;;;;;;;10.50;3.20;;;;;;;-19.15;53.10;99591.13;6275516;22;20038;-60
2024/01/13 01:02:30;;;;;;;8.60;3.47;;;;;;;-19.16;53.06;99598.72;6276088;22;19999;-58
2024/01/13 01:04:56;;;;;;;9.18;3.40;;;;;;;-19.18;53.02;99582.50;6275985;22;20003;-57
2024/01/13 01:07:21;;;;;;;15.68;3.35;;;;;;;-19.20;53.02;99588.41;6248175;22;20014;-60
2024/01/13 01:09:47;;;;;;;11.15;3.50;;;;;;;-19.25;53.14;99577.19;6274692;22;20000;-58
2024/01/13 01:12:12;;;;;;;14.18;3.10;;;;;;;-19.23;52.95;99580.66;6275528;22;19995;-61
2024/01/13 01:14:38;;;;;;;11.43;2.97;;;;;;;-19.22;53.25;99592.59;6275943;22;19999;-55
2024/01/13 01:17:03;;;;;;;8.77;3.00;;;;;;;-19.39;53.02;99558.84;6276029;22;20007;-58
2024/01/13 01:19:29;;;;;;;8.55;3.15;;;;;;;-19.30;53.04;99591.44;6276295;22;20087;-61
2024/01/13 01:21:55;;;;;;;12.65;3.20;;;;;;;-19.35;52.92;99593.84;6275981;22;20024;-61
2024/01/13 01:24:20;;;;;;;11.35;2.92;;;;;;;-19.28;52.96;99586.41;6276606;22;20003;-60
2024/01/13 01:26:46;;;;;;;10.27;2.92;;;;;;;-19.35;53.33;99587.88;6275885;22;20065;-57
2024/01/13 01:29:12;;;;;;;15.73;4.15;;;;;;;-19.28;53.15;99592.41;6276098;22;20022;-56
2024/01/13 01:31:37;;;;;;;8.52;2.60;;;;;;;-19.27;52.99;99595.78;6276265;22;20015;-60
2024/01/13 01:34:03;;;;;;;9.55;2.80;;;;;;;-19.27;52.87;99606.88;6276089;22;20039;-60
2024/01/13 01:36:28;;;;;;;11.23;3.08;;;;;;;-19.25;52.71;99605.25;6275765;22;20515;-58
2024/01/13 01:38:54;;;;;;;10.88;2.55;;;;;;;-19.21;52.71;99611.31;6276357;22;20015;-57
2024/01/13 01:41:20;;;;;;;8.95;2.80;;;;;;;-19.23;52.49;99602.75;6276364;22;20043;-58
2024/01/13 01:43:46;;;;;;;8.63;3.05;;;;;;;-19.22;52.55;99610.47;6275674;22;20320;-57
2024/01/13 01:46:18;;;;;;;10.32;3.22;;;;;;;-19.42;52.77;99570.63;6276098;22;20004;-60
2024/01/13 01:48:45;;;;;;;9.18;3.40;;;;;;;-19.22;52.67;99620.66;6276671;22;20057;-58
2024/01/13 01:51:16;;;;;;;12.88;3.70;;;;;;;-19.60;52.75;99558.06;6275953;22;20000;-58
2024/01/13 01:53:43;;;;;;;10.70;3.47;;;;;;;-19.23;52.70;99629.13;6277473;22;20008;-60
2024/01/13 01:56:13;;;;;;;11.80;3.85;;;;;;;-19.27;53.03;99624.75;6278298;22;20004;-59
2024/01/13 01:58:40;;;;;;;12.40;4.40;;;;;;;-19.26;52.92;99612.84;6278002;22;20404;-61
2024/01/13 02:01:07;;;;;;;9.98;3.20;;;;;;;-19.23;52.82;99624.03;6277814;22;20205;-58
2024/01/13 02:03:37;;;;;;;12.20;3.85;;;;;;;-19.25;52.71;99625.66;6276572;22;20073;-60
2024/01/13 02:06:04;;;;;;;12.63;3.47;;;;;;;-19.26;52.95;99613.72;6276855;22;20083;-60
2024/01/13 02:08:30;;;;;;;11.90;2.90;;;;;;;-19.23;52.60;99624.03;6277844;22;20003;-57
2024/01/13 02:10:55;;;;;;;9.80;3.50;;;;;;;-19.20;53.06;99628.34;6277597;22;20349;-55
2024/01/13 02:13:21;;;;;;;12.50;2.97;;;;;;;-19.23;52.60;99624.03;6278042;22;20010;-61
2024/01/13 02:15:46;;;;;;;10.70;3.15;;;;;;;-19.23;52.55;99630.81;6278090;22;20086;-61
2024/01/13 02:18:12;;;;;;;14.10;3.90;;;;;;;-19.51;52.74;99586.44;6277894;22;20007;-57
2024/01/13 02:20:37;;;;;;;10.82;3.25;;;;;;;-19.32;52.68;99625.38;6277223;22;20027;-59
2024/01/13 02:23:03;;;;;;;15.35;3.85;;;;;;;-19.28;52.91;99643.41;6277823;22;20071;-57
2024/01/13 02:25:28;;;;;;;13.13;3.67;;;;;;;-19.28;52.96;99639.97;6278091;22;20003;-57
2024/01/13 02:27:54;;;;;;;11.60;3.40;;;;;;;-19.30;52.88;99650.13;6277656;22;20027;-60
2024/01/13 02:30:19;;;;;;;10.88;4.13;;;;;;;-19.36;53.38;99643.13;6276539;22;20091;-54
2024/01/13 02:32:45;;;;;;;10.32;3.30;;;;;;;-19.30;53.12;99662.00;6277161;22;20073;-59
2024/01/13 02:35:10;;;;;;;10.68;3.80;;;;;;;-19.32;53.46;99653.44;6278110;22;20046;-58
2024/01/13 02:37:36;;;;;;;13.05;3.75;;;;;;;-19.35;53.55;99652.50;6277718;22;20004;-58
2024/01/13 02:40:01;;;;;;;6.45;2.78;;;;;;;-19.36;53.21;99642.25;6277371;22;20016;-58
2024/01/13 02:42:28;;;;;;;11.68;4.32;;;;;;;-19.35;53.30;99662.72;6277524;22;20027;-60
2024/01/13 02:44:53;;;;;;;10.10;3.20;;;;;;;-19.37;53.22;99651.59;6277941;22;20015;-61
2024/01/13 02:47:25;;;;;;;14.55;3.60;;;;;;;-19.36;53.52;99655.00;6278191;22;20389;-58
2024/01/13 02:49:50;;;;;;;15.65;3.92;;;;;;;-19.37;53.65;99664.34;6277938;22;19999;-54
2024/01/13 02:52:16;;;;;;;12.70;3.67;;;;;;;-19.38;53.44;99652.41;6277345;22;20262;-58
2024/01/13 02:54:41;;;;;;;13.65;4.68;;;;;;;-19.37;53.44;99655.81;6277753;22;20008;-61
2024/01/13 02:57:07;;;;;;;14.05;3.55;;;;;;;-19.37;53.80;99650.72;6277164;22;20003;-54
2024/01/13 02:59:32;;;;;;;13.02;3.70;;;;;;;-19.73;53.61;99600.09;6277229;22;20000;-52
2024/01/13 03:01:58;;;;;;;11.98;3.78;;;;;;;-19.38;53.70;99665.16;6277480;22;19999;-54
2024/01/13 03:04:23;;;;;;;15.13;4.03;;;;;;;-19.38;53.97;99659.19;6276864;22;20003;-59
2024/01/13 03:06:49;;;;;;;12.43;3.83;;;;;;;-19.39;54.00;99660.88;6277784;22;20010;-54
2024/01/13 03:09:15;;;;;;;11.95;3.92;;;;;;;-19.38;54.05;99666.81;6277337;22;20007;-54
2024/01/13 03:11:40;;;;;;;10.35;3.20;;;;;;;-19.38;54.28;99666.81;6277280;22;19999;-55
2024/01/13 03:14:06;;;;;;;9.88;3.90;;;;;;;-19.41;54.06;99662.47;6277464;22;20003;-52
2024/01/13 03:16:31;;;;;;;19.20;4.90;;;;;;;-19.41;54.19;99659.06;6276923;22;20096;-56
2024/01/13 03:18:57;;;;;;;12.88;4.40;;;;;;;-19.81;53.90;99608.31;6277083;22;20034;-62
2024/01/13 03:21:22;;;;;;;9.65;3.35;;;;;;;-19.44;54.28;99661.50;6277222;22;20000;-58
2024/01/13 03:23:48;;;;;;;15.52;3.70;;;;;;;-19.47;53.87;99658.84;6276761;22;20096;-56
2024/01/13 03:26:13;;;;;;;13.35;3.95;;;;;;;-19.48;53.91;99668.16;6277143;22;20015;-59
2024/01/13 03:28:39;;;;;;;18.40;4.43;;;;;;;-19.49;53.76;99671.53;6277060;22;20049;-59
2024/01/13 03:31:04;;;;;;;12.30;4.55;;;;;;;-19.54;53.99;99662.84;6276765;22;20397;-57
2024/01/13 03:33:30;;;;;;;15.05;4.28;;;;;;;-19.51;53.90;99674.03;6276865;22;20293;-58
2024/01/13 03:35:55;;;;;;;13.15;3.63;;;;;;;-19.52;53.96;99664.66;6276914;22;20000;-59
2024/01/13 03:38:21;;;;;;;16.50;3.70;;;;;;;-19.55;53.83;99656.84;6277059;22;20399;-57
2024/01/13 03:40:47;;;;;;;12.95;3.85;;;;;;;-19.58;54.34;99673.75;6276559;22;20012;-56
2024/01/13 03:43:13;;;;;;;12.23;3.60;;;;;;;-19.57;53.79;99683.13;6277272;22;20015;-59
2024/01/13 03:45:38;;;;;;;12.38;3.90;;;;;;;-19.61;54.04;99681.28;6276755;22;20293;-61
2024/01/13 03:48:04;;;;;;;13.07;3.92;;;;;;;-19.65;53.89;99682.81;6276442;22;20042;-57
2024/01/13 03:50:29;;;;;;;15.48;4.20;;;;;;;-19.66;54.28;99674.28;6277020;22;20003;-57
2024/01/13 03:52:55;;;;;;;12.10;3.28;;;;;;;-19.65;53.74;99680.28;6277368;22;19996;-60
2024/01/13 03:55:20;;;;;;;11.43;3.40;;;;;;;-19.67;54.05;99682.75;6276673;22;20060;-57
2024/01/13 03:57:46;;;;;;;13.27;3.78;;;;;;;-19.66;53.97;99674.28;6276608;22;20012;-53
2024/01/13 04:00:12;;;;;;;13.10;3.78;;;;;;;-19.69;53.90;99683.53;6277342;22;20011;-51
2024/01/13 04:02:37;;;;;;;14.35;4.80;;;;;;;-19.78;54.26;99673.84;6277604;22;20000;-54
2024/01/13 04:05:04;;;;;;;13.60;4.43;;;;;;;-20.05;54.34;99621.03;6276576;22;20027;-53
2024/01/13 04:07:30;;;;;;;12.15;4.25;;;;;;;-19.67;54.04;99692.09;6276711;22;19999;-52
2024/01/13 04:09:55;;;;;;;18.88;4.63;;;;;;;-19.66;54.15;99694.69;6277322;22;19999;-52
2024/01/13 04:12:21;;;;;;;13.60;3.40;;;;;;;-19.63;54.06;99705.03;6276869;22;20094;-53
2024/01/13 04:14:46;;;;;;;18.55;4.47;;;;;;;-20.02;54.06;99628.78;6276434;22;20516;-55
2024/01/13 04:17:11;;;;;;;12.82;3.80;;;;;;;-19.64;54.34;99702.41;6276440;22;20004;-57
2024/01/13 04:19:37;;;;;;;22.58;4.95;;;;;;;-19.64;54.60;99702.41;6276675;22;20462;-60
2024/01/13 04:22:02;;;;;;;20.77;5.40;;;;;;;-19.65;54.89;99700.69;6276849;22;20448;-56
2024/01/13 04:24:28;;;;;;;17.65;5.30;;;;;;;-19.67;55.27;99700.59;6276188;22;20006;-59
2024/01/13 04:26:53;;;;;;;13.18;4.43;;;;;;;-19.68;55.25;99720.97;6276527;22;20396;-60
2024/01/13 04:29:19;;;;;;;20.30;4.93;;;;;;;-19.66;55.76;99724.44;6276719;22;20014;-56
2024/01/13 04:31:44;;;;;;;17.67;5.43;;;;;;;-19.68;55.61;99732.00;6276804;22;20004;-56
2024/01/13 04:34:10;;;;;;;16.48;5.22;;;;;;;-19.67;55.53;99730.34;6276471;22;19996;-58
2024/01/13 04:36:35;;;;;;;15.30;5.10;;;;;;;-19.71;55.56;99719.16;6275931;22;20008;-57
2024/01/13 04:39:01;;;;;;;18.95;5.85;;;;;;;-19.70;55.77;99725.13;6275150;22;20034;-58
2024/01/13 04:41:26;;;;;;;20.80;5.85;;;;;;;-19.75;55.86;99726.63;6277153;22;20016;-61
2024/01/13 04:43:52;;;;;;;12.35;5.43;;;;;;;-20.03;55.92;99692.41;6275788;22;20027;-58
2024/01/13 04:46:17;;;;;;;14.13;5.15;;;;;;;-19.74;55.94;99741.13;6276284;22;20014;-58
2024/01/13 04:48:43;;;;;;;13.85;4.70;;;;;;;-19.77;56.13;99736.75;6276610;22;20354;-61
2024/01/13 04:51:08;;;;;;;13.27;4.57;;;;;;;-19.83;56.19;99719.53;6276492;22;20000;-57
2024/01/13 04:53:34;;;;;;;16.70;5.57;;;;;;;-19.72;55.91;99726.75;6276225;22;20079;-58
2024/01/13 04:56:00;;;;;;;17.92;5.00;;;;;;;-19.72;56.15;99742.91;6275860;22;20050;-64
2024/01/13 04:58:25;;;;;;;22.02;5.88;;;;;;;-19.72;56.02;99739.50;6275307;22;20000;-59
2024/01/13 05:00:51;;;;;;;15.55;5.35;;;;;;;-19.76;56.21;99738.50;6276087;22;20417;-57
2024/01/13 05:03:16;;;;;;;14.57;5.15;;;;;;;-19.76;55.98;99748.69;6276139;22;19999;-54
2024/01/13 05:05:42;;;;;;;16.58;6.00;;;;;;;-19.74;55.96;99764.06;6276046;22;20059;-59
2024/01/13 05:08:08;;;;;;;17.98;4.28;;;;;;;-19.76;56.08;99770.78;6276304;22;20000;-57
2024/01/13 05:10:34;;;;;;;17.25;5.50;;;;;;;-19.85;56.00;99769.56;6275987;22;20004;-58
2024/01/13 05:13:00;;;;;;;13.40;5.65;;;;;;;-19.88;56.22;99758.41;6276011;22;20010;-59
2024/01/13 05:15:25;;;;;;;22.35;5.43;;;;;;;-19.92;55.95;99754.88;6276932;22;20006;-58
2024/01/13 05:17:51;;;;;;;15.90;5.20;;;;;;;-19.89;56.47;99762.63;6275611;22;20015;-55
2024/01/13 05:20:16;;;;;;;15.98;5.85;;;;;;;-19.89;56.33;99764.28;6276013;22;20004;-58
2024/01/13 05:22:42;;;;;;;15.98;5.55;;;;;;;-19.92;56.15;99772.72;6276237;22;20301;-57
2024/01/13 05:25:10;;;;;;;17.10;6.30;;;;;;;-20.00;56.14;99767.31;6275604;22;19996;-59
2024/01/13 05:27:36;;;;;;;16.00;5.53;;;;;;;-20.01;55.94;99779.97;6275538;22;20100;-60
2024/01/13 05:30:01;;;;;;;16.90;5.93;;;;;;;-20.04;56.20;99784.94;6278759;22;20007;-59
2024/01/13 05:32:30;;;;;;;12.05;3.95;;;;;;;-20.05;56.08;99776.44;6278756;22;20415;-59
2024/01/13 05:34:55;;;;;;;18.25;5.90;;;;;;;-20.12;56.36;99779.56;6277830;22;19999;-55
2024/01/13 05:37:21;;;;;;;24.95;6.85;;;;;;;-20.17;56.29;99784.44;6278307;22;20038;-61
2024/01/13 05:39:46;;;;;;;15.23;5.60;;;;;;;-20.18;56.16;99786.91;6278206;22;20011;-58
2024/01/13 05:42:12;;;;;;;18.25;5.85;;;;;;;-20.24;56.36;99777.38;6278210;22;20023;-54
2024/01/13 05:44:37;;;;;;;18.45;6.20;;;;;;;-20.17;56.28;99792.09;6277794;22;20308;-56
2024/01/13 05:47:04;;;;;;;20.80;5.78;;;;;;;-20.13;56.46;99778.66;6278649;22;20343;-57
2024/01/13 05:49:29;;;;;;;16.40;4.75;;;;;;;-20.12;56.23;99777.84;6278651;22;20008;-60
2024/01/13 05:51:55;;;;;;;16.10;6.03;;;;;;;-20.10;56.15;99778.78;6277730;22;20008;-56
2024/01/13 05:54:20;;;;;;;14.05;5.00;;;;;;;-20.12;55.91;99756.63;6277925;22;20031;-57
2024/01/13 05:56:46;;;;;;;24.73;5.97;;;;;;;-20.08;55.96;99763.59;6278406;22;20003;-60
2024/01/13 05:59:12;;;;;;;18.02;6.55;;;;;;;-19.96;55.77;99784.47;6278110;22;20039;-61
2024/01/13 06:01:38;;;;;;;20.00;6.18;;;;;;;-20.29;55.91;99712.59;6277768;22;20385;-57
2024/01/13 06:04:03;;;;;;;14.40;5.45;;;;;;;-20.21;55.73;99714.66;6277936;22;20091;-59
2024/01/13 06:06:29;;;;;;;13.23;4.97;;;;;;;-19.81;55.64;99776.53;6278144;22;20564;-57
2024/01/13 06:08:54;;;;;;;21.85;6.38;;;;;;;-19.74;55.80;99764.06;6277921;22;20075;-57
2024/01/13 06:11:20;;;;;;;14.05;5.82;;;;;;;-19.70;55.87;99768.47;6277372;22;20297;-56
2024/01/13 06:13:46;;;;;;;30.35;5.22;;;;;;;-19.63;55.51;99766.22;6277918;22;20000;-57
2024/01/13 06:16:13;;;;;;;25.85;6.07;;;;;;;-19.91;55.27;99713.31;6277981;22;20249;-58
2024/01/13 06:18:38;;;;;;;14.63;4.82;;;;;;;-19.42;55.08;99780.59;6277747;22;20006;-60
2024/01/13 06:21:04;;;;;;;15.77;6.32;;;;;;;-19.47;54.63;99771.91;6277457;22;19999;-58
2024/01/13 06:23:29;;;;;;;20.52;6.20;;;;;;;-19.46;54.68;99780.44;6277572;22;20082;-56
2024/01/13 06:25:55;;;;;;;16.15;6.18;;;;;;;-19.40;54.75;99789.22;6276129;22;20008;-58
2024/01/13 06:28:20;;;;;;;21.63;6.70;;;;;;;-19.35;54.31;99789.38;6277523;22;20007;-57
2024/01/13 06:30:46;;;;;;;17.27;5.53;;;;;;;-19.21;54.43;99801.00;6277320;22;20091;-61
2024/01/13 06:33:11;;;;;;;22.45;6.05;;;;;;;-19.12;54.59;99805.59;6277358;22;20003;-60
2024/01/13 06:35:37;;;;;;;19.30;7.03;;;;;;;-19.05;54.30;99801.56;6277659;22;20411;-60
2024/01/13 06:38:03;;;;;;;30.02;7.82;;;;;;;-18.85;54.24;99742.69;6277732;22;20015;-59
2024/01/13 06:40:28;;;;;;;23.10;7.28;;;;;;;-16.75;52.12;99794.66;6276782;22;20042;-54
2024/01/13 06:42:55;;;;;;;21.00;6.82;;;;;;;-14.68;48.97;99802.28;6277411;22;20043;-58
2024/01/13 06:45:20;;;;;;;20.85;6.97;;;;;;;-13.02;44.30;99797.44;6276703;22;20284;-60
2024/01/13 06:47:46;;;;;;;21.45;6.97;;;;;;;-12.87;43.18;99796.78;6277505;22;20007;-57
2024/01/13 06:50:11;;;;;;;21.67;7.10;;;;;;;-12.46;42.89;99803.34;6277143;22;20062;-57
2024/01/13 06:52:38;;;;;;;19.90;7.15;;;;;;;-10.83;41.53;99789.31;6277209;22;20100;-59
2024/01/13 06:55:06;;;;;;;21.73;8.00;;;;;;;-8.71;38.56;99793.09;6277345;22;20300;-61
2024/01/13 06:57:31;;;;;;;28.67;9.18;;;;;;;-6.99;36.31;99798.13;6277401;22;20039;-55
2024/01/13 06:59:57;;;;;;;20.85;8.82;;;;;;;-5.45;34.58;99804.06;6277123;22;20014;-57
2024/01/13 07:02:22;;;;;;;21.85;8.80;;;;;;;-4.32;32.64;99808.19;6277090;22;19999;-55
2024/01/13 07:04:48;;;;;;;27.05;8.70;;;;;;;-3.36;31.83;99796.56;6277406;22;20004;-61
2024/01/13 07:07:13;;;;;;;22.02;9.43;;;;;;;-2.62;30.03;99796.47;6276603;22;20003;-62
2024/01/13 07:09:38;;;;;;;26.58;9.43;;;;;;;-1.96;30.10;99800.78;6276902;22;20045;-60
2024/01/13 07:12:05;;;;;;;22.13;9.68;;;;;;;-1.64;29.06;99793.69;6277528;22;20021;-60
2024/01/13 07:14:31;;;;;;;23.05;9.73;;;;;;;-1.62;28.55;99792.75;6275613;22;20004;-61
2024/01/13 07:16:57;;;;;;;27.00;10.48;;;;;;;-1.37;28.19;99810.34;6276678;22;20293;-62
2024/01/13 07:19:22;;;;;;;23.90;11.25;;;;;;;-1.08;27.38;99815.59;6277190;22;20008;-62
2024/01/13 07:21:48;;;;;;;23.73;10.68;;;;;;;-0.96;27.24;99772.28;6276806;22;20007;-61
2024/01/13 07:24:13;;;;;;;26.60;10.30;;;;;;;-0.32;26.04;99815.63;6276772;22;20297;-59
2024/01/13 07:26:39;;;;;;;22.83;11.05;;;;;;;0.12;25.83;99818.41;6277077;22;20003;-58
2024/01/13 07:29:05;;;;;;;23.63;10.65;;;;;;;0.40;24.71;99808.59;6277010;22;19999;-56
2024/01/13 07:31:31;;;;;;;25.83;11.27;;;;;;;0.60;24.41;99822.75;6276707;22;20071;-59
2024/01/13 07:33:56;;;;;;;25.08;11.00;;;;;;;0.58;23.85;99822.81;6277151;22;20000;-62
2024/01/13 07:36:22;;;;;;;19.92;9.52;;;;;;;0.00;23.34;99803.09;6276784;22;20409;-60
2024/01/13 07:38:47;;;;;;;21.45;10.02;;;;;;;-0.90;24.22;99837.78;6276599;22;20000;-56
2024/01/13 07:41:13;;;;;;;26.33;9.63;;;;;;;-2.70;25.43;99832.50;6277124;22;20015;-60
2024/01/13 07:43:38;;;;;;;23.08;10.15;;;;;;;-4.45;27.09;99852.91;6277443;22;20014;-62
2024/01/13 07:46:04;;;;;;;25.80;9.95;;;;;;;-6.10;28.47;99840.63;6276437;22;20014;-55
2024/01/13 07:48:30;;;;;;;22.95;10.02;;;;;;;-7.74;30.10;99832.47;6276802;22;20012;-59
2024/01/13 07:50:56;;;;;;;22.42;10.05;;;;;;;-9.26;31.94;99844.16;6277002;22;20023;-60
2024/01/13 07:53:21;;;;;;;22.10;9.32;;;;;;;-10.49;33.96;99831.75;6276550;22;20301;-60
2024/01/13 07:55:47;;;;;;;29.73;11.15;;;;;;;-11.56;35.10;99834.44;6276350;22;20000;-59
2024/01/13 07:58:12;;;;;;;31.95;11.20;;;;;;;-12.38;36.58;99852.47;6276561;22;20004;-58
2024/01/13 08:00:38;;;;;;;24.33;9.57;;;;;;;-13.08;37.71;99833.44;6277223;22;20000;-56
2024/01/13 08:03:04;;;;;;;29.90;9.88;;;;;;;-13.57;38.44;99828.38;6276800;22;20019;-58
2024/01/13 08:05:31;;;;;;;25.52;9.95;;;;;;;-13.86;39.29;99857.03;6276205;22;20031;-60
2024/01/13 08:07:56;;;;;;;19.77;8.80;;;;;;;-14.11;39.67;99856.56;6276379;22;20031;-63
2024/01/13 08:10:23;;;;;;;19.77;8.43;;;;;;;-14.32;40.09;99852.72;6276765;22;20002;-57
2024/01/13 08:12:48;;;;;;;25.98;9.35;;;;;;;-14.55;40.35;99838.50;6277020;22;20000;-60
2024/01/13 08:15:14;;;;;;;22.40;9.55;;;;;;;-14.60;40.58;99851.25;6276185;22;20289;-56
2024/01/13 08:17:40;;;;;;;24.58;8.70;;;;;;;-14.64;40.88;99864.88;6276604;22;20293;-57
2024/01/13 08:20:07;;;;;;;28.58;9.38;;;;;;;-14.78;41.68;99862.03;6276340;22;20396;-60
2024/01/13 08:22:32;;;;;;;26.25;8.38;;;;;;;-14.80;41.15;99866.28;6276891;22;20087;-61
2024/01/13 08:24:58;;;;;;;25.60;8.93;;;;;;;-14.83;41.70;99858.50;6276166;22;20031;-59
2024/01/13 08:27:25;;;;;;;24.90;9.32;;;;;;;-14.78;41.72;99859.47;6276238;22;20010;-60
2024/01/13 08:29:50;;;;;;;27.40;9.60;;;;;;;-14.77;41.69;99862.09;6277133;22;20004;-60
2024/01/13 08:32:16;;;;;;;22.42;8.90;;;;;;;-14.77;41.54;99849.22;6277501;22;20414;-59
2024/01/13 08:34:41;;;;;;;26.00;10.50;;;;;;;-14.74;41.68;99858.69;6276602;22;20000;-62
2024/01/13 08:37:07;;;;;;;25.45;9.13;;;;;;;-14.76;42.19;99852.66;6276177;22;20014;-57
2024/01/13 08:39:33;;;;;;;24.20;8.80;;;;;;;-14.78;41.98;99836.34;6275972;22;20043;-62
2024/01/13 08:41:59;;;;;;;19.20;8.35;;;;;;;-14.83;42.07;99827.66;6276416;22;20053;-59
2024/01/13 08:44:24;;;;;;;27.85;9.02;;;;;;;-14.68;41.85;99847.66;6274979;22;20015;-56
2024/01/13 08:46:50;;;;;;;31.45;10.27;;;;;;;-14.71;41.97;99851.03;6274885;22;19996;-60
2024/01/13 08:49:15;;;;;;;24.27;9.98;;;;;;;-14.78;41.80;99849.19;6276046;22;20003;-60
2024/01/13 08:51:41;;;;;;;23.25;9.43;;;;;;;-14.82;42.28;99847.38;6276653;22;20003;-59
2024/01/13 08:54:07;;;;;;;29.55;10.25;;;;;;;-14.80;42.72;99845.72;6276276;22;20010;-61
2024/01/13 08:56:34;;;;;;;24.98;9.95;;;;;;;-14.71;42.72;99843.34;6275427;22;20018;-61
2024/01/13 08:59:01;;;;;;;26.48;10.00;;;;;;;-14.57;43.08;99852.19;6275393;22;20351;-59
2024/01/13 09:01:27;;;;;;;23.85;9.10;;;;;;;-14.52;42.35;99860.03;6275412;22;20458;-60
2024/01/13 09:03:52;;;;;;;29.52;10.10;;;;;;;-14.48;42.25;99860.94;6276060;22;20007;-60
2024/01/13 09:06:18;;;;;;;32.45;10.77;;;;;;;-14.55;42.37;99834.25;6276472;22;20004;-59
2024/01/13 09:08:43;;;;;;;32.45;10.80;;;;;;;-14.52;42.50;99843.72;6276106;22;20075;-60
2024/01/13 09:11:09;;;;;;;28.10;8.88;;;;;;;-14.51;42.65;99850.59;6275235;22;20039;-54
2024/01/13 09:13:34;;;;;;;23.65;9.48;;;;;;;-14.54;42.73;99850.53;6276486;22;20000;-57
2024/01/13 09:16:00;;;;;;;30.02;10.23;;;;;;;-14.64;43.45;99845.19;6275964;22;20245;-61
2024/01/13 09:18:25;;;;;;;27.35;10.05;;;;;;;-14.68;42.95;99851.09;6275957;22;20004;-58
2024/01/13 09:20:51;;;;;;;35.22;9.40;;;;;;;-14.73;43.32;99845.00;6276489;22;20069;-60
2024/01/13 09:23:17;;;;;;;28.05;9.82;;;;;;;-14.75;43.64;99842.41;6276269;22;20004;-58
2024/01/13 09:25:42;;;;;;;27.95;9.60;;;;;;;-14.87;43.26;99837.88;6276168;22;20011;-58
2024/01/13 09:28:09;;;;;;;29.80;9.52;;;;;;;-15.07;43.54;99818.56;6276822;22;20010;-58
2024/01/13 09:30:35;;;;;;;34.13;10.25;;;;;;;-15.01;43.68;99842.69;6276319;22;20032;-57
2024/01/13 09:33:01;;;;;;;28.92;10.48;;;;;;;-14.97;43.67;99847.91;6275846;22;20011;-60
2024/01/13 09:35:30;;;;;;;24.05;8.98;;;;;;;-14.98;44.00;99828.19;6275756;22;20000;-60
2024/01/13 09:37:57;;;;;;;25.00;9.68;;;;;;;-14.97;43.79;99832.50;6276607;22;20039;-57
2024/01/13 09:40:23;;;;;;;28.98;10.30;;;;;;;-15.06;43.96;99815.16;6274667;22;20012;-60
2024/01/13 09:42:57;;;;;;;26.75;10.10;;;;;;;-15.01;44.02;99834.09;6275973;22;20011;-61
2024/01/13 09:45:22;;;;;;;26.48;9.90;;;;;;;-15.03;44.17;99830.63;6276028;22;20019;-57
2024/01/13 09:47:48;;;;;;;29.33;9.82;;;;;;;-15.07;44.26;99832.28;6275493;22;20079;-56
2024/01/13 09:50:14;;;;;;;27.85;9.50;;;;;;;-15.03;44.19;99828.97;6276363;22;20031;-57
2024/01/13 09:52:42;;;;;;;23.30;8.23;;;;;;;-15.06;43.84;99835.72;6274646;22;20450;-58
2024/01/13 09:55:08;;;;;;;35.33;10.13;;;;;;;-15.20;44.10;99802.84;6276269;22;20000;-59
2024/01/13 09:57:34;;;;;;;27.35;10.15;;;;;;;-15.20;44.19;99800.28;6276339;22;20003;-59
2024/01/13 10:00:02;;;;;;;24.88;10.38;;;;;;;-15.21;44.95;99810.53;6276113;22;20066;-60
2024/01/13 10:02:28;;;;;;;31.40;11.25;;;;;;;-15.19;45.11;99822.59;6275783;22;20012;-57
2024/01/13 10:04:54;;;;;;;31.35;10.88;;;;;;;-15.33;45.02;99798.28;6276124;22;20389;-57
2024/01/13 10:07:20;;;;;;;32.38;11.57;;;;;;;-15.18;45.24;99816.63;6276064;22;20027;-59
2024/01/13 10:09:46;;;;;;;29.52;10.90;;;;;;;-15.19;45.20;99821.72;6275165;22;20389;-59
2024/01/13 10:12:12;;;;;;;29.55;11.30;;;;;;;-15.29;45.21;99792.38;6276137;22;20003;-55
2024/01/13 10:14:38;;;;;;;32.88;10.98;;;;;;;-15.09;45.45;99825.38;6277911;22;20474;-61
2024/01/13 10:17:05;;;;;;;32.75;11.93;;;;;;;-15.05;45.48;99832.31;6278692;22;20046;-59
2024/01/13 10:19:41;;;;;;;34.17;12.10;;;;;;;-14.99;45.71;99827.31;6278682;22;20000;-62
2024/01/13 10:22:07;;;;;;;33.72;11.07;;;;;;;-14.95;45.49;99817.97;6278286;22;20080;-58
2024/01/13 10:24:36;;;;;;;33.95;10.68;;;;;;;-14.90;45.19;99819.81;6278230;22;20004;-57
2024/01/13 10:27:04;;;;;;;32.28;11.30;;;;;;;-15.20;45.62;99766.91;6277512;22;20007;-59
2024/01/13 10:29:30;;;;;;;31.60;11.95;;;;;;;-14.86;45.69;99824.19;6278362;22;19999;-58
2024/01/13 10:31:55;;;;;;;31.23;11.88;;;;;;;-14.78;45.89;99816.66;6278040;22;20008;-54
2024/01/13 10:34:21;;;;;;;31.40;11.45;;;;;;;-14.77;45.67;99807.22;6278108;22;20018;-57
2024/01/13 10:36:48;;;;;;;33.05;11.57;;;;;;;-14.73;45.27;99815.03;6278584;22;20008;-58
2024/01/13 10:39:14;;;;;;;27.77;10.93;;;;;;;-14.69;45.28;99808.25;6276734;22;20007;-55
2024/01/13 10:41:46;;;;;;;28.05;11.15;;;;;;;-14.71;45.58;99807.34;6278192;22;20015;-57
2024/01/13 10:44:15;;;;;;;30.17;11.68;;;;;;;-14.59;45.51;99807.59;6277818;22;20011;-57
2024/01/13 10:46:46;;;;;;;31.55;11.85;;;;;;;-14.60;45.93;99787.88;6277801;22;20004;-56
2024/01/13 10:49:31;;;;;;;39.47;11.60;;;;;;;-14.48;45.85;99782.09;6278061;22;20086;-56
2024/01/13 10:51:58;;;;;;;33.60;11.40;;;;;;;-14.37;45.30;99807.16;6277659;22;20007;-59
2024/01/13 10:54:28;;;;;;;38.95;11.82;;;;;;;-14.36;45.43;99790.88;6278037;22;20015;-55
2024/01/13 10:56:54;;;;;;;34.13;12.40;;;;;;;-14.33;45.24;99796.97;6277422;22;20014;-57
2024/01/13 10:59:22;;;;;;;37.72;12.25;;;;;;;-14.35;45.32;99796.06;6277553;22;20007;-60
2024/01/13 11:01:50;;;;;;;31.77;12.30;;;;;;;-14.31;45.58;99808.16;6277885;22;20004;-58
2024/01/13 11:04:17;;;;;;;36.85;12.35;;;;;;;-14.23;45.07;99810.00;6277909;22;20063;-59
2024/01/13 11:06:42;;;;;;;35.63;11.82;;;;;;;-14.28;45.36;99818.50;6277223;22;20038;-57
2024/01/13 11:09:11;;;;;;;35.38;11.95;;;;;;;-14.27;45.41;99811.66;6277596;22;19999;-60
2024/01/13 11:11:50;;;;;;;36.53;12.57;;;;;;;-14.34;45.42;99797.81;6275722;22;20388;-58